createdAt,value
2018-02-19T00:00:20.815Z,73.30
2018-02-19T00:00:55.252Z,72.90
2018-02-19T00:01:28.929Z,73.30
2018-02-19T00:02:02.599Z,73.40
2018-02-19T00:02:37.026Z,73.20
2018-02-19T00:03:10.682Z,73.20
2018-02-19T00:03:44.343Z,73.20
2018-02-19T00:04:17.995Z,73.10
2018-02-19T00:04:51.470Z,73.20
2018-02-19T00:05:25.932Z,73.20
2018-02-19T00:05:59.614Z,73.20
2018-02-19T00:06:33.297Z,73.20
2018-02-19T00:07:06.950Z,73.20
2018-02-19T00:07:41.370Z,73.20
2018-02-19T00:08:15.045Z,73.20
2018-02-19T00:08:49.484Z,73.20
2018-02-19T00:09:23.151Z,73.20
2018-02-19T00:09:56.815Z,73.10
2018-02-19T00:10:31.286Z,73.20
2018-02-19T00:11:04.960Z,73.20
2018-02-19T00:11:38.621Z,73.20
2018-02-19T00:12:13.059Z,73.30
2018-02-19T00:12:46.723Z,73.30
2018-02-19T00:13:20.388Z,73.20
2018-02-19T00:13:54.815Z,73.90
2018-02-19T00:14:28.483Z,73.20
2018-02-19T00:15:02.873Z,73.20
2018-02-19T00:15:36.564Z,73.20
2018-02-19T00:16:10.226Z,73.20
2018-02-19T00:16:43.887Z,73.20
2018-02-19T00:17:17.550Z,73.20
2018-02-19T00:17:51.798Z,73.20
2018-02-19T00:18:25.468Z,73.20
2018-02-19T00:18:59.125Z,73.20
2018-02-19T00:19:32.783Z,73.10
2018-02-19T00:20:06.438Z,73.10
2018-02-19T00:20:40.201Z,73.10
2018-02-19T00:21:14.623Z,73.50
2018-02-19T00:21:49.063Z,73.10
2018-02-19T00:22:22.555Z,73.10
2018-02-19T00:22:56.213Z,73.00
2018-02-19T00:23:29.873Z,73.20
2018-02-19T00:24:04.302Z,73.20
2018-02-19T00:24:37.958Z,73.10
2018-02-19T00:25:11.626Z,73.10
2018-02-19T00:25:45.325Z,73.10
2018-02-19T00:26:18.993Z,73.10
2018-02-19T00:26:52.654Z,73.10
2018-02-19T00:27:26.303Z,73.10
2018-02-19T00:27:59.964Z,73.00
2018-02-19T00:28:33.631Z,72.90
2018-02-19T00:29:07.306Z,72.90
2018-02-19T00:29:41.739Z,73.00
2018-02-19T00:30:15.410Z,73.10
2018-02-19T00:30:49.132Z,73.00
2018-02-19T00:31:22.800Z,73.00
2018-02-19T00:31:56.467Z,73.10
2018-02-19T00:32:30.931Z,73.10
2018-02-19T00:33:04.598Z,73.20
2018-02-19T00:33:38.253Z,73.10
2018-02-19T00:34:12.673Z,73.10
2018-02-19T00:34:46.388Z,73.00
2018-02-19T00:35:20.104Z,73.00
2018-02-19T00:35:53.802Z,73.00
2018-02-19T00:36:27.460Z,73.00
2018-02-19T00:37:01.139Z,73.20
2018-02-19T00:37:34.800Z,73.10
2018-02-19T00:38:09.240Z,73.10
2018-02-19T00:38:42.910Z,73.00
2018-02-19T00:39:16.583Z,73.10
2018-02-19T00:39:51.023Z,73.00
2018-02-19T00:40:24.688Z,73.00
2018-02-19T00:40:58.411Z,73.00
2018-02-19T00:41:32.070Z,73.00
2018-02-19T00:42:05.751Z,73.00
2018-02-19T00:42:40.249Z,73.20
2018-02-19T00:43:14.676Z,73.20
2018-02-19T00:43:48.350Z,73.10
2018-02-19T00:44:22.777Z,73.10
2018-02-19T00:44:56.446Z,73.10
2018-02-19T00:45:30.881Z,73.10
2018-02-19T00:46:04.591Z,73.10
2018-02-19T00:46:38.252Z,73.10
2018-02-19T00:47:11.918Z,73.10
2018-02-19T00:47:46.351Z,73.10
2018-02-19T00:48:20.013Z,73.00
2018-02-19T00:48:54.438Z,73.10
2018-02-19T00:49:28.122Z,73.10
2018-02-19T00:50:02.559Z,73.10
2018-02-19T00:50:36.223Z,73.10
2018-02-19T00:51:09.911Z,73.10
2018-02-19T00:51:44.342Z,73.10
2018-02-19T00:52:18.007Z,73.10
2018-02-19T00:52:52.479Z,73.10
2018-02-19T00:53:26.133Z,73.10
2018-02-19T00:53:59.791Z,73.10
2018-02-19T00:54:34.226Z,73.20
2018-02-19T00:55:07.890Z,73.20
2018-02-19T00:55:42.401Z,73.20
2018-02-19T00:56:16.087Z,73.20
2018-02-19T00:56:50.511Z,73.30
2018-02-19T00:57:24.170Z,73.30
2018-02-19T00:57:58.603Z,73.50
2018-02-19T00:58:32.268Z,73.50
2018-02-19T00:59:06.703Z,73.60
2018-02-19T00:59:40.375Z,73.40
2018-02-19T01:00:14.812Z,73.60
2018-02-19T01:00:48.474Z,73.60
2018-02-19T01:01:22.935Z,73.60
2018-02-19T01:01:56.614Z,73.50
2018-02-19T01:02:30.284Z,73.60
2018-02-19T01:03:03.958Z,73.60
2018-02-19T01:03:37.618Z,73.60
2018-02-19T01:04:11.275Z,73.60
2018-02-19T01:04:44.943Z,74.00
2018-02-19T01:05:18.615Z,73.70
2018-02-19T01:05:52.274Z,73.70
2018-02-19T01:06:25.786Z,73.60
2018-02-19T01:06:59.453Z,73.70
2018-02-19T01:07:33.902Z,73.70
2018-02-19T01:08:07.559Z,73.70
2018-02-19T01:08:41.996Z,73.80
2018-02-19T01:09:15.658Z,74.40
2018-02-19T01:09:50.094Z,73.80
2018-02-19T01:10:23.754Z,73.80
2018-02-19T01:10:58.182Z,73.70
2018-02-19T01:11:31.897Z,73.70
2018-02-19T01:12:05.571Z,73.80
2018-02-19T01:12:39.232Z,73.80
2018-02-19T01:13:13.659Z,73.90
2018-02-19T01:13:47.326Z,73.80
2018-02-19T01:14:21.768Z,73.80
2018-02-19T01:14:55.422Z,73.80
2018-02-19T01:15:30.098Z,73.80
2018-02-19T01:16:03.769Z,73.80
2018-02-19T01:16:37.463Z,73.80
2018-02-19T01:17:11.138Z,73.80
2018-02-19T01:17:44.811Z,73.80
2018-02-19T01:18:18.466Z,73.80
2018-02-19T01:18:52.138Z,73.90
2018-02-19T01:19:25.811Z,74.40
2018-02-19T01:19:59.526Z,73.80
2018-02-19T01:20:33.185Z,73.90
2018-02-19T01:21:06.862Z,73.90
2018-02-19T01:21:40.571Z,74.00
2018-02-19T01:22:14.255Z,74.00
2018-02-19T01:22:47.915Z,74.10
2018-02-19T01:23:21.602Z,74.10
2018-02-19T01:23:55.275Z,74.10
2018-02-19T01:24:29.702Z,74.20
2018-02-19T01:25:03.381Z,74.20
2018-02-19T01:25:37.825Z,74.20
2018-02-19T01:26:11.498Z,74.20
2018-02-19T01:26:45.193Z,74.30
2018-02-19T01:27:18.861Z,74.20
2018-02-19T01:27:53.302Z,74.10
2018-02-19T01:28:26.958Z,74.00
2018-02-19T01:29:00.638Z,74.10
2018-02-19T01:29:35.079Z,74.00
2018-02-19T01:30:08.753Z,74.10
2018-02-19T01:30:42.426Z,74.20
2018-02-19T01:31:16.874Z,74.00
2018-02-19T01:31:50.562Z,74.10
2018-02-19T01:32:24.228Z,73.90
2018-02-19T01:32:57.908Z,73.80
2018-02-19T01:33:32.407Z,73.90
2018-02-19T01:34:06.854Z,74.10
2018-02-19T01:34:40.532Z,73.90
2018-02-19T01:35:14.200Z,73.90
2018-02-19T01:35:48.644Z,74.00
2018-02-19T01:36:22.309Z,73.90
2018-02-19T01:36:56.022Z,74.00
2018-02-19T01:37:29.688Z,74.00
2018-02-19T01:38:03.363Z,74.10
2018-02-19T01:38:37.806Z,74.20
2018-02-19T01:39:11.483Z,74.20
2018-02-19T01:39:45.154Z,74.20
2018-02-19T01:40:19.582Z,74.20
2018-02-19T01:40:53.264Z,74.20
2018-02-19T01:41:26.922Z,74.20
2018-02-19T01:42:00.602Z,74.20
2018-02-19T01:42:34.259Z,74.20
2018-02-19T01:43:07.943Z,74.10
2018-02-19T01:43:41.604Z,74.10
2018-02-19T01:44:16.038Z,74.10
2018-02-19T01:44:49.721Z,74.10
2018-02-19T01:45:23.386Z,74.00
2018-02-19T01:45:57.823Z,74.10
2018-02-19T01:46:31.490Z,74.70
2018-02-19T01:47:05.479Z,74.00
2018-02-19T01:47:39.923Z,74.10
2018-02-19T01:48:13.600Z,74.10
2018-02-19T01:48:47.272Z,74.10
2018-02-19T01:49:20.943Z,74.10
2018-02-19T01:50:06.575Z,74.10
2018-02-19T01:50:40.245Z,74.10
2018-02-19T01:51:13.917Z,74.10
2018-02-19T01:51:47.599Z,74.10
2018-02-19T01:52:21.288Z,74.20
2018-02-19T01:52:55.731Z,74.20
2018-02-19T01:53:29.407Z,74.20
2018-02-19T01:54:03.074Z,74.30
2018-02-19T01:54:36.748Z,74.30
2018-02-19T01:55:11.224Z,74.30
2018-02-19T01:55:44.885Z,74.20
2018-02-19T01:56:18.558Z,74.30
2018-02-19T01:56:52.251Z,74.40
2018-02-19T01:57:25.947Z,74.40
2018-02-19T01:57:59.642Z,74.40
2018-02-19T01:58:33.309Z,74.50
2018-02-19T01:59:07.008Z,74.40
2018-02-19T01:59:40.676Z,74.40
2018-02-19T02:00:15.118Z,74.50
2018-02-19T02:00:48.783Z,74.50
2018-02-19T02:01:23.248Z,74.50
2018-02-19T02:01:56.910Z,74.50
2018-02-19T02:02:30.603Z,74.50
2018-02-19T02:03:04.276Z,74.60
2018-02-19T02:03:37.938Z,74.60
2018-02-19T02:04:12.379Z,74.60
2018-02-19T02:04:46.061Z,74.60
2018-02-19T02:05:19.722Z,74.60
2018-02-19T02:05:54.165Z,74.70
2018-02-19T02:06:27.848Z,74.70
2018-02-19T02:07:01.509Z,74.80
2018-02-19T02:07:35.991Z,74.80
2018-02-19T02:08:09.325Z,74.80
2018-02-19T02:08:42.992Z,74.80
2018-02-19T02:09:17.421Z,74.90
2018-02-19T02:09:51.085Z,74.80
2018-02-19T02:10:24.748Z,74.90
2018-02-19T02:10:58.500Z,75.10
2018-02-19T02:11:32.156Z,74.90
2018-02-19T02:12:06.588Z,75.00
2018-02-19T02:12:40.562Z,74.90
2018-02-19T02:13:14.990Z,74.90
2018-02-19T02:13:48.650Z,74.90
2018-02-19T02:14:22.309Z,74.90
2018-02-19T02:14:55.966Z,75.00
2018-02-19T02:15:29.645Z,74.90
2018-02-19T02:16:03.309Z,75.00
2018-02-19T02:16:37.747Z,75.20
2018-02-19T02:17:11.399Z,75.00
2018-02-19T02:17:45.077Z,75.00
2018-02-19T02:18:19.528Z,75.00
2018-02-19T02:18:53.204Z,75.00
2018-02-19T02:19:27.627Z,74.90
2018-02-19T02:20:01.302Z,74.90
2018-02-19T02:20:35.737Z,74.90
2018-02-19T02:21:09.454Z,74.90
2018-02-19T02:21:44.034Z,75.10
2018-02-19T02:22:17.690Z,75.00
2018-02-19T02:22:52.159Z,75.10
2018-02-19T02:23:25.820Z,75.10
2018-02-19T02:23:59.481Z,75.10
2018-02-19T02:24:33.962Z,75.20
2018-02-19T02:25:07.638Z,75.10
2018-02-19T02:25:41.726Z,75.20
2018-02-19T02:26:15.390Z,75.20
2018-02-19T02:26:49.071Z,75.20
2018-02-19T02:27:22.738Z,75.20
2018-02-19T02:27:56.419Z,75.20
2018-02-19T02:28:30.083Z,75.90
2018-02-19T02:29:03.769Z,75.30
2018-02-19T02:29:37.434Z,75.40
2018-02-19T02:30:11.106Z,75.40
2018-02-19T02:30:44.766Z,75.40
2018-02-19T02:31:18.424Z,75.40
2018-02-19T02:31:52.115Z,75.50
2018-02-19T02:32:25.792Z,75.40
2018-02-19T02:32:59.491Z,75.50
2018-02-19T02:33:33.179Z,75.50
2018-02-19T02:34:06.833Z,75.60
2018-02-19T02:34:41.265Z,75.70
2018-02-19T02:35:14.931Z,75.70
2018-02-19T02:35:48.587Z,75.70
2018-02-19T02:36:22.259Z,75.80
2018-02-19T02:36:55.934Z,75.80
2018-02-19T02:37:29.610Z,75.80
2018-02-19T02:38:02.975Z,75.80
2018-02-19T02:38:36.630Z,75.80
2018-02-19T02:39:10.292Z,75.80
2018-02-19T02:39:43.957Z,76.20
2018-02-19T02:40:17.454Z,75.90
2018-02-19T02:40:51.126Z,75.90
2018-02-19T02:41:24.782Z,75.80
2018-02-19T02:41:59.204Z,75.90
2018-02-19T02:42:33.642Z,75.80
2018-02-19T02:43:07.342Z,75.80
2018-02-19T02:43:41.036Z,75.80
2018-02-19T02:44:14.720Z,75.90
2018-02-19T02:44:48.386Z,75.90
2018-02-19T02:45:22.058Z,76.00
2018-02-19T02:45:56.515Z,76.10
2018-02-19T02:46:30.197Z,76.00
2018-02-19T02:47:03.896Z,76.10
2018-02-19T02:47:37.566Z,76.10
2018-02-19T02:48:11.265Z,76.10
2018-02-19T02:48:44.929Z,76.00
2018-02-19T02:49:18.592Z,76.00
2018-02-19T02:49:53.027Z,76.10
2018-02-19T02:50:26.701Z,76.10
2018-02-19T02:51:01.164Z,76.00
2018-02-19T02:51:34.843Z,76.10
2018-02-19T02:52:08.499Z,76.10
2018-02-19T02:52:42.175Z,76.10
2018-02-19T02:53:16.648Z,76.20
2018-02-19T02:53:50.315Z,76.20
2018-02-19T02:54:23.992Z,76.30
2018-02-19T02:54:57.654Z,76.30
2018-02-19T02:55:31.328Z,76.30
2018-02-19T02:56:05.763Z,76.40
2018-02-19T02:56:39.447Z,76.20
2018-02-19T02:57:13.126Z,76.40
2018-02-19T02:57:47.576Z,76.30
2018-02-19T02:58:20.931Z,76.30
2018-02-19T02:58:54.627Z,76.40
2018-02-19T02:59:28.298Z,76.30
2018-02-19T03:00:02.746Z,76.30
2018-02-19T03:00:36.433Z,76.30
2018-02-19T03:01:10.103Z,76.20
2018-02-19T03:01:43.786Z,76.40
2018-02-19T03:02:17.465Z,76.20
2018-02-19T03:02:51.910Z,76.30
2018-02-19T03:03:25.437Z,76.30
2018-02-19T03:03:59.126Z,76.30
2018-02-19T03:04:32.807Z,76.30
2018-02-19T03:05:06.471Z,76.40
2018-02-19T03:05:40.155Z,76.40
2018-02-19T03:06:13.819Z,76.40
2018-02-19T03:06:47.499Z,76.40
2018-02-19T03:07:20.855Z,76.50
2018-02-19T03:07:55.289Z,76.60
2018-02-19T03:08:28.983Z,76.60
2018-02-19T03:09:02.664Z,76.60
2018-02-19T03:09:37.114Z,76.70
2018-02-19T03:10:10.796Z,77.20
2018-02-19T03:10:44.464Z,76.70
2018-02-19T03:11:18.143Z,76.70
2018-02-19T03:11:52.581Z,76.60
2018-02-19T03:12:26.250Z,76.60
2018-02-19T03:12:59.930Z,76.70
2018-02-19T03:13:33.925Z,76.70
2018-02-19T03:14:07.599Z,76.70
2018-02-19T03:14:42.026Z,76.70
2018-02-19T03:15:16.460Z,76.60
2018-02-19T03:15:50.137Z,76.60
2018-02-19T03:16:23.814Z,76.70
2018-02-19T03:16:57.499Z,76.70
2018-02-19T03:17:31.171Z,76.70
2018-02-19T03:18:05.608Z,76.70
2018-02-19T03:18:39.326Z,76.70
2018-02-19T03:19:12.994Z,76.70
2018-02-19T03:19:46.659Z,76.70
2018-02-19T03:20:21.090Z,76.80
2018-02-19T03:20:54.751Z,76.80
2018-02-19T03:21:29.205Z,76.80
2018-02-19T03:22:02.884Z,76.80
2018-02-19T03:22:36.578Z,76.80
2018-02-19T03:23:10.271Z,76.80
2018-02-19T03:23:43.972Z,76.80
2018-02-19T03:24:17.651Z,76.80
2018-02-19T03:24:51.362Z,76.90
2018-02-19T03:25:25.091Z,76.90
2018-02-19T03:25:59.558Z,76.90
2018-02-19T03:26:33.228Z,76.80
2018-02-19T03:27:06.716Z,76.80
2018-02-19T03:27:40.391Z,76.90
2018-02-19T03:28:14.053Z,76.90
2018-02-19T03:28:48.846Z,77.00
2018-02-19T03:29:22.520Z,76.90
2018-02-19T03:29:56.186Z,77.10
2018-02-19T03:30:29.859Z,77.20
2018-02-19T03:31:03.524Z,77.20
2018-02-19T03:31:37.984Z,77.10
2018-02-19T03:32:11.665Z,77.20
2018-02-19T03:32:45.350Z,77.10
2018-02-19T03:33:19.017Z,77.20
2018-02-19T03:33:52.995Z,77.10
2018-02-19T03:34:27.455Z,77.20
2018-02-19T03:35:01.148Z,77.10
2018-02-19T03:35:34.834Z,77.20
2018-02-19T03:36:08.515Z,77.30
2018-02-19T03:36:42.189Z,77.10
2018-02-19T03:37:15.854Z,77.10
2018-02-19T03:37:50.286Z,77.20
2018-02-19T03:38:23.966Z,77.20
2018-02-19T03:38:57.658Z,77.20
2018-02-19T03:39:31.333Z,77.20
2018-02-19T03:40:05.787Z,77.20
2018-02-19T03:40:39.473Z,77.20
2018-02-19T03:41:13.152Z,77.10
2018-02-19T03:41:46.832Z,77.10
2018-02-19T03:42:20.502Z,77.20
2018-02-19T03:42:54.950Z,77.20
2018-02-19T03:43:28.630Z,77.20
2018-02-19T03:44:02.330Z,77.20
2018-02-19T03:44:36.038Z,77.20
2018-02-19T03:45:09.394Z,77.30
2018-02-19T03:45:44.015Z,77.30
2018-02-19T03:46:17.703Z,77.30
2018-02-19T03:46:51.393Z,77.30
2018-02-19T03:47:25.066Z,77.30
2018-02-19T03:47:58.731Z,77.30
2018-02-19T03:48:33.178Z,77.30
2018-02-19T03:49:06.883Z,77.30
2018-02-19T03:49:40.556Z,77.30
2018-02-19T03:50:14.220Z,77.30
2018-02-19T03:50:47.899Z,77.30
2018-02-19T03:51:22.342Z,77.30
2018-02-19T03:51:56.005Z,77.30
2018-02-19T03:52:32.602Z,77.30
2018-02-19T03:53:06.278Z,77.30
2018-02-19T03:53:39.942Z,77.30
2018-02-19T03:54:13.658Z,77.30
2018-02-19T03:54:47.323Z,77.30
2018-02-19T03:55:20.994Z,77.30
2018-02-19T03:55:55.434Z,77.40
2018-02-19T03:56:29.118Z,77.30
2018-02-19T03:57:02.778Z,77.40
2018-02-19T03:57:37.219Z,77.50
2018-02-19T03:58:10.911Z,77.40
2018-02-19T03:58:44.585Z,77.50
2018-02-19T03:59:18.303Z,77.60
2018-02-19T03:59:51.986Z,77.40
2018-02-19T04:00:25.682Z,77.40
2018-02-19T04:00:59.374Z,77.50
2018-02-19T04:01:33.033Z,77.60
2018-02-19T04:02:06.706Z,77.60
2018-02-19T04:02:41.124Z,77.70
2018-02-19T04:03:14.802Z,77.70
2018-02-19T04:03:49.305Z,77.80
2018-02-19T04:04:23.162Z,77.70
2018-02-19T04:04:56.868Z,77.70
2018-02-19T04:05:30.531Z,77.70
2018-02-19T04:06:04.250Z,77.70
2018-02-19T04:06:37.938Z,77.60
2018-02-19T04:07:11.617Z,77.70
2018-02-19T04:07:45.300Z,77.70
2018-02-19T04:08:18.974Z,77.80
2018-02-19T04:08:52.640Z,77.80
2018-02-19T04:09:26.343Z,77.80
2018-02-19T04:09:59.850Z,77.80
2018-02-19T04:10:33.734Z,77.80
2018-02-19T04:11:10.421Z,77.80
2018-02-19T04:11:44.095Z,77.80
2018-02-19T04:12:17.779Z,77.80
2018-02-19T04:12:51.453Z,77.80
2018-02-19T04:13:25.134Z,77.80
2018-02-19T04:13:58.811Z,77.80
2018-02-19T04:14:33.632Z,77.90
2018-02-19T04:15:07.325Z,77.90
2018-02-19T04:15:41.003Z,77.90
2018-02-19T04:16:15.464Z,77.80
2018-02-19T04:16:49.139Z,77.80
2018-02-19T04:17:22.815Z,77.90
2018-02-19T04:17:56.483Z,77.90
2018-02-19T04:18:30.927Z,77.90
2018-02-19T04:19:04.614Z,77.90
2018-02-19T04:19:38.612Z,77.90
2018-02-19T04:20:12.286Z,77.90
2018-02-19T04:20:45.961Z,78.00
2018-02-19T04:21:19.650Z,78.00
2018-02-19T04:21:54.128Z,78.00
2018-02-19T04:22:27.803Z,78.00
2018-02-19T04:23:01.471Z,78.10
2018-02-19T04:23:35.157Z,78.10
2018-02-19T04:24:08.483Z,78.10
2018-02-19T04:24:41.842Z,78.10
2018-02-19T04:25:15.517Z,78.10
2018-02-19T04:25:49.185Z,78.10
2018-02-19T04:26:22.859Z,78.10
2018-02-19T04:26:56.537Z,78.00
2018-02-19T04:27:30.214Z,78.00
2018-02-19T04:28:03.886Z,77.90
2018-02-19T04:28:37.554Z,78.80
2018-02-19T04:29:11.229Z,78.00
2018-02-19T04:29:45.393Z,78.10
2018-02-19T04:30:19.505Z,78.10
2018-02-19T04:30:53.193Z,78.10
2018-02-19T04:31:27.628Z,78.00
2018-02-19T04:32:01.306Z,78.00
2018-02-19T04:32:34.969Z,78.00
2018-02-19T04:33:09.410Z,78.00
2018-02-19T04:33:43.093Z,78.00
2018-02-19T04:34:16.756Z,78.00
2018-02-19T04:34:51.586Z,78.00
2018-02-19T04:35:25.348Z,77.90
2018-02-19T04:35:59.027Z,77.90
2018-02-19T04:36:32.694Z,77.90
2018-02-19T04:37:06.361Z,77.90
2018-02-19T04:37:40.031Z,78.00
2018-02-19T04:38:14.469Z,78.10
2018-02-19T04:38:48.130Z,78.00
2018-02-19T04:39:21.810Z,78.70
2018-02-19T04:39:56.274Z,78.20
2018-02-19T04:40:29.944Z,78.10
2018-02-19T04:41:03.438Z,78.20
2018-02-19T04:41:37.176Z,78.20
2018-02-19T04:42:11.613Z,78.90
2018-02-19T04:42:45.098Z,78.20
2018-02-19T04:43:18.583Z,78.10
2018-02-19T04:43:52.067Z,78.00
2018-02-19T04:44:35.432Z,78.00
2018-02-19T04:46:21.186Z,77.90
2018-02-19T04:47:04.762Z,78.50
2018-02-19T04:47:39.187Z,78.00
2018-02-19T04:48:12.862Z,77.90
2018-02-19T04:48:47.310Z,78.00
2018-02-19T04:49:21.001Z,78.00
2018-02-19T04:49:54.689Z,77.90
2018-02-19T04:50:28.417Z,78.00
2018-02-19T04:51:02.097Z,78.00
2018-02-19T04:51:35.769Z,78.00
2018-02-19T04:52:09.463Z,78.00
2018-02-19T04:52:43.137Z,78.00
2018-02-19T04:53:16.809Z,77.90
2018-02-19T04:53:50.473Z,77.90
2018-02-19T04:54:24.983Z,77.90
2018-02-19T04:54:59.419Z,77.80
2018-02-19T04:55:33.116Z,77.80
2018-02-19T04:56:06.831Z,77.80
2018-02-19T04:56:41.415Z,77.80
2018-02-19T04:57:15.094Z,77.80
2018-02-19T04:57:48.758Z,77.90
2018-02-19T04:58:23.194Z,77.80
2018-02-19T04:58:56.871Z,77.80
2018-02-19T04:59:31.118Z,77.80
2018-02-19T05:00:04.289Z,78.40
2018-02-19T05:00:37.982Z,77.80
2018-02-19T05:01:11.482Z,77.90
2018-02-19T05:01:45.158Z,77.90
2018-02-19T05:02:18.841Z,77.90
2018-02-19T05:02:52.510Z,77.90
2018-02-19T05:03:26.171Z,77.90
2018-02-19T05:04:00.617Z,77.90
2018-02-19T05:04:34.297Z,77.90
2018-02-19T05:05:07.999Z,77.90
2018-02-19T05:05:41.710Z,77.90
2018-02-19T05:06:15.385Z,77.90
2018-02-19T05:06:49.058Z,77.90
2018-02-19T05:07:22.727Z,77.90
2018-02-19T05:07:57.161Z,77.90
2018-02-19T05:08:30.839Z,77.90
2018-02-19T05:09:03.680Z,77.90
2018-02-19T05:09:37.339Z,78.00
2018-02-19T05:10:11.008Z,78.00
2018-02-19T05:10:44.714Z,78.00
2018-02-19T05:11:18.420Z,78.00
2018-02-19T05:11:52.094Z,78.10
2018-02-19T05:12:25.774Z,78.10
2018-02-19T05:12:59.458Z,78.10
2018-02-19T05:13:33.129Z,78.10
2018-02-19T05:14:06.806Z,78.20
2018-02-19T05:14:40.476Z,78.20
2018-02-19T05:15:14.912Z,78.30
2018-02-19T05:15:48.606Z,78.20
2018-02-19T05:16:22.282Z,78.30
2018-02-19T05:16:55.944Z,78.30
2018-02-19T05:17:29.622Z,78.20
2018-02-19T05:18:03.321Z,78.30
2018-02-19T05:18:37.015Z,78.30
2018-02-19T05:19:10.690Z,78.40
2018-02-19T05:19:44.380Z,78.50
2018-02-19T05:20:18.061Z,78.40
2018-02-19T05:20:51.775Z,78.40
2018-02-19T05:21:25.460Z,78.40
2018-02-19T05:21:59.126Z,78.40
2018-02-19T05:22:32.803Z,78.30
2018-02-19T05:23:06.483Z,78.50
2018-02-19T05:23:40.142Z,78.50
2018-02-19T05:24:14.583Z,78.50
2018-02-19T05:24:48.269Z,78.50
2018-02-19T05:25:21.944Z,78.50
2018-02-19T05:25:55.317Z,78.50
2018-02-19T05:26:28.998Z,78.50
2018-02-19T05:27:03.442Z,78.50
2018-02-19T05:27:37.111Z,78.50
2018-02-19T05:28:10.777Z,78.50
2018-02-19T05:28:45.228Z,78.50
2018-02-19T05:29:18.900Z,78.50
2018-02-19T05:29:52.579Z,78.50
2018-02-19T05:30:26.262Z,78.50
2018-02-19T05:31:00.736Z,78.50
2018-02-19T05:31:34.406Z,78.50
2018-02-19T05:32:07.420Z,78.50
2018-02-19T05:32:41.850Z,78.80
2018-02-19T05:33:15.546Z,78.50
2018-02-19T05:33:49.238Z,78.50
2018-02-19T05:34:22.919Z,78.50
2018-02-19T05:34:56.403Z,78.50
2018-02-19T05:35:30.120Z,78.50
2018-02-19T05:36:03.813Z,78.50
2018-02-19T05:36:37.499Z,78.50
2018-02-19T05:37:11.170Z,78.60
2018-02-19T05:37:44.851Z,78.60
2018-02-19T05:38:19.289Z,78.50
2018-02-19T05:38:52.959Z,78.50
2018-02-19T05:39:26.637Z,78.60
2018-02-19T05:40:00.313Z,78.60
2018-02-19T05:40:34.740Z,78.70
2018-02-19T05:41:08.450Z,78.70
2018-02-19T05:41:42.124Z,78.80
2018-02-19T05:42:15.798Z,78.80
2018-02-19T05:42:50.250Z,78.80
2018-02-19T05:43:23.932Z,78.80
2018-02-19T05:43:57.633Z,78.90
2018-02-19T05:44:31.322Z,78.90
2018-02-19T05:45:05.013Z,78.90
2018-02-19T05:45:38.693Z,79.00
2018-02-19T05:46:12.382Z,79.00
2018-02-19T05:46:46.044Z,79.00
2018-02-19T05:47:19.726Z,79.10
2018-02-19T05:47:54.169Z,79.10
2018-02-19T05:48:27.847Z,79.00
2018-02-19T05:49:01.519Z,79.10
2018-02-19T05:49:35.211Z,79.10
2018-02-19T05:50:08.909Z,79.10
2018-02-19T05:50:42.588Z,79.10
2018-02-19T05:51:16.277Z,79.20
2018-02-19T05:51:49.968Z,79.20
2018-02-19T05:52:23.652Z,79.30
2018-02-19T05:52:58.097Z,79.30
2018-02-19T05:53:31.792Z,79.30
2018-02-19T05:54:05.476Z,79.40
2018-02-19T05:54:39.166Z,79.40
2018-02-19T05:55:12.856Z,79.40
2018-02-19T05:55:46.203Z,79.50
2018-02-19T05:56:20.768Z,79.50
2018-02-19T05:56:54.496Z,79.40
2018-02-19T05:57:28.966Z,79.50
2018-02-19T05:58:02.639Z,79.40
2018-02-19T05:58:36.314Z,79.60
2018-02-19T05:59:09.978Z,79.60
2018-02-19T05:59:44.421Z,79.70
2018-02-19T06:00:18.111Z,79.60
2018-02-19T06:00:51.786Z,79.70
2018-02-19T06:01:25.492Z,79.60
2018-02-19T06:01:59.203Z,79.70
2018-02-19T06:02:32.910Z,79.70
2018-02-19T06:03:06.586Z,79.70
2018-02-19T06:03:40.268Z,79.70
2018-02-19T06:04:13.938Z,79.70
2018-02-19T06:04:47.610Z,79.70
2018-02-19T06:05:20.942Z,79.70
2018-02-19T06:05:54.621Z,79.70
2018-02-19T06:06:28.311Z,79.80
2018-02-19T06:07:01.978Z,79.80
2018-02-19T06:07:35.658Z,79.70
2018-02-19T06:08:09.334Z,79.70
2018-02-19T06:08:43.004Z,79.80
2018-02-19T06:09:17.451Z,79.80
2018-02-19T06:09:51.145Z,79.80
2018-02-19T06:10:24.819Z,79.80
2018-02-19T06:10:58.497Z,79.80
2018-02-19T06:11:32.194Z,79.80
2018-02-19T06:12:05.908Z,79.80
2018-02-19T06:12:39.609Z,79.80
2018-02-19T06:13:13.290Z,79.80
2018-02-19T06:13:46.966Z,79.90
2018-02-19T06:14:20.660Z,79.80
2018-02-19T06:14:54.389Z,79.80
2018-02-19T06:15:28.087Z,79.80
2018-02-19T06:16:01.771Z,79.80
2018-02-19T06:16:35.751Z,80.60
2018-02-19T06:17:09.436Z,79.80
2018-02-19T06:17:43.127Z,79.70
2018-02-19T06:18:16.794Z,79.70
2018-02-19T06:18:50.474Z,79.70
2018-02-19T06:19:24.135Z,79.70
2018-02-19T06:19:58.586Z,79.70
2018-02-19T06:20:32.270Z,79.70
2018-02-19T06:21:05.945Z,79.70
2018-02-19T06:21:39.671Z,79.70
2018-02-19T06:22:13.363Z,79.80
2018-02-19T06:22:47.026Z,79.80
2018-02-19T06:23:20.727Z,79.80
2018-02-19T06:23:54.398Z,79.90
2018-02-19T06:24:29.010Z,79.90
2018-02-19T06:25:02.703Z,79.80
2018-02-19T06:25:36.476Z,79.80
2018-02-19T06:26:10.918Z,79.90
2018-02-19T06:26:44.620Z,79.90
2018-02-19T06:27:18.310Z,79.90
2018-02-19T06:27:51.998Z,79.90
2018-02-19T06:28:25.680Z,79.90
2018-02-19T06:28:59.354Z,79.90
2018-02-19T06:29:33.030Z,79.90
2018-02-19T06:30:06.047Z,80.00
2018-02-19T06:30:39.739Z,80.00
2018-02-19T06:31:13.412Z,80.00
2018-02-19T06:31:47.115Z,80.00
2018-02-19T06:32:20.805Z,79.90
2018-02-19T06:32:54.481Z,79.90
2018-02-19T06:33:28.170Z,79.80
2018-02-19T06:34:01.860Z,79.80
2018-02-19T06:34:35.244Z,79.80
2018-02-19T06:35:08.914Z,79.70
2018-02-19T06:35:42.602Z,79.70
2018-02-19T06:36:16.291Z,79.80
2018-02-19T06:36:49.667Z,79.90
2018-02-19T06:37:23.357Z,79.90
2018-02-19T06:37:57.052Z,79.90
2018-02-19T06:38:30.734Z,79.80
2018-02-19T06:39:03.581Z,79.80
2018-02-19T06:39:38.010Z,80.40
2018-02-19T06:40:11.702Z,79.70
2018-02-19T06:40:45.393Z,79.70
2018-02-19T06:41:19.853Z,79.80
2018-02-19T06:41:53.566Z,79.70
2018-02-19T06:42:27.998Z,79.70
2018-02-19T06:43:01.686Z,79.70
2018-02-19T06:43:35.365Z,79.70
2018-02-19T06:44:10.135Z,79.60
2018-02-19T06:44:43.817Z,79.60
2018-02-19T06:45:17.490Z,79.60
2018-02-19T06:45:51.166Z,79.50
2018-02-19T06:46:24.841Z,79.50
2018-02-19T06:46:58.563Z,79.40
2018-02-19T06:47:32.231Z,79.40
2018-02-19T06:48:06.885Z,79.30
2018-02-19T06:48:40.555Z,79.30
2018-02-19T06:49:14.232Z,79.40
2018-02-19T06:49:47.910Z,79.30
2018-02-19T06:50:21.587Z,79.30
2018-02-19T06:50:56.030Z,79.20
2018-02-19T06:51:29.704Z,79.20
2018-02-19T06:52:03.220Z,79.20
2018-02-19T06:52:36.958Z,79.10
2018-02-19T06:53:11.416Z,79.10
2018-02-19T06:53:45.087Z,79.10
2018-02-19T06:54:18.768Z,79.10
2018-02-19T06:54:52.440Z,79.00
2018-02-19T06:55:26.881Z,78.80
2018-02-19T06:56:00.553Z,78.80
2018-02-19T06:56:34.234Z,78.70
2018-02-19T06:57:07.914Z,78.60
2018-02-19T06:57:42.355Z,78.70
2018-02-19T06:58:16.023Z,78.50
2018-02-19T06:58:49.702Z,78.60
2018-02-19T06:59:24.139Z,78.60
2018-02-19T06:59:57.807Z,78.60
2018-02-19T07:00:31.490Z,78.50
2018-02-19T07:01:05.944Z,78.40
2018-02-19T07:01:39.449Z,78.40
2018-02-19T07:02:13.170Z,78.40
2018-02-19T07:02:47.294Z,78.40
2018-02-19T07:03:20.969Z,78.30
2018-02-19T07:03:54.653Z,78.20
2018-02-19T07:04:28.337Z,78.20
2018-02-19T07:05:02.775Z,78.10
2018-02-19T07:05:36.436Z,78.10
2018-02-19T07:06:10.875Z,78.00
2018-02-19T07:06:44.568Z,77.90
2018-02-19T07:07:18.283Z,77.90
2018-02-19T07:07:51.963Z,77.80
2018-02-19T07:08:25.445Z,77.80
2018-02-19T07:08:59.115Z,77.70
2018-02-19T07:09:32.782Z,77.60
2018-02-19T07:10:07.219Z,77.50
2018-02-19T07:10:40.905Z,77.30
2018-02-19T07:11:14.578Z,77.20
2018-02-19T07:11:48.257Z,77.10
2018-02-19T07:12:21.966Z,77.20
2018-02-19T07:12:55.626Z,77.20
2018-02-19T07:13:30.074Z,77.10
2018-02-19T07:14:03.770Z,77.10
2018-02-19T07:14:37.447Z,77.00
2018-02-19T07:15:11.129Z,77.00
2018-02-19T07:15:44.829Z,77.00
2018-02-19T07:16:18.481Z,76.90
2018-02-19T07:16:52.927Z,76.80
2018-02-19T07:17:26.634Z,76.80